Aérodrome :







RETROUVEZ-NOUS SUR...

 
LOGIN :

S'inscrire | Disclaimer

   EN    FR    IT 

 









Légende :    VFR   VFR Marginal   IFR   IFR Intensif   IFR Très Intensif
Visi : 
Plafond : 
>= 8 km
>= 3000ft
5 à 8 km
1000 à 3000 ft
1500m à 5 km
500 à 1000 ft
800 à 1500m
200 à 500 ft
< 800m
< 200 ft
Symboles :   Orages  Brouillard  Fortes neiges  Fortes précipitations  Vent > 20 kt






- Altitude de l'aérodrome : 477 ft
- Code IATA : YHZ


CYHZ - Halifax Stanfield Int.

DERNIER METAR :
  • 100700Z 18027G40KT 3SM -RA BR BKN007 OVC013 11/10 A2990 RMK SF7NS1 PRESFR SLP130

METARs EXPIRÉS :
  • 100642Z 18024G37KT 4SM -RA BR BKN007 OVC018 10/10 A2992 RMK SF6NS2 SLP136
  • 100607Z 18026G44KT 15SM -RA FEW010 OVC026 11/10 A2993 RMK SF2SC6 PRESFR SLP139
  • 100600Z 18025G42KT 15SM SCT008 BKN026 OVC045 11/10 A2994 RMK SF3SC4SC1 SLP143
  • 100500Z 18025G38KT 12SM BKN006 OVC013 10/10 A2998 RMK SF7NS1 PRESFR SLP156
  • 100430Z 18027G38KT 15SM BKN005 OVC011 10/10 A3002 RMK SF7NS1 PRESFR SLP171

TAF AMD TAF CYHZ
Valide du 10 à 06h jusqu'au 11 à 06h UTC


100625Z 1006/1106 18025G40KT P6SM -RA SCT012 OVC025
TEMPO 1006/1012 3SM -RA BR SCT006 OVC012
PROB30 1006/1012 2SM RA BR BKN003 OVC006
FM101200 22025G35KT 2SM -DZ BR OVC004
TEMPO 1012/1016 6SM -RA BR OVC008
FM101600 22015G25KT 5SM -DZ BR OVC008
TEMPO 1016/1024 P6SM NSW OVC015
FM110000 22015G25KT 3SM -RA -DZ BR OVC004 RMK NXT FCST BY 100900Z



MET'MAP, la Météo Aéronautique d'un coup d'oeil ! - Copyright ORBIFLY Décembre 2007 - Disclaimer

ORBIFLY MET'MAP TEAM :

Programmation & Développement : Alexandra Zaïnal
Sur une idée originale de : Baudouin d'Aumeries
Assistance à la programmation : Marc-Olivier Méhu
Soutien technique & logistique : Manuel Goepfert

Contact : metmap@orbifly.com




SOURCES & CREDITS :

   NOAA